sensor_id;sensor_type;location;lat;lon;timestamp;pressure;altitude;pressure_sealevel;temperature
12061;BMP180;6091;51.432;6.880;2022-10-16T00:01:40;100308.00;;;25.10
12061;BMP180;6091;51.432;6.880;2022-10-16T00:04:08;100331.00;;;25.10
12061;BMP180;6091;51.432;6.880;2022-10-16T00:06:35;100334.00;;;25.10
12061;BMP180;6091;51.432;6.880;2022-10-16T00:09:02;100335.00;;;25.10
12061;BMP180;6091;51.432;6.880;2022-10-16T00:11:33;100331.00;;;25.10
12061;BMP180;6091;51.432;6.880;2022-10-16T00:14:09;100337.00;;;25.10
12061;BMP180;6091;51.432;6.880;2022-10-16T00:16:37;100335.00;;;25.10
12061;BMP180;6091;51.432;6.880;2022-10-16T00:19:05;100326.00;;;25.10
12061;BMP180;6091;51.432;6.880;2022-10-16T00:21:32;100325.00;;;25.10
12061;BMP180;6091;51.432;6.880;2022-10-16T00:24:04;100326.00;;;25.10
12061;BMP180;6091;51.432;6.880;2022-10-16T00:26:34;100342.00;;;25.10
12061;BMP180;6091;51.432;6.880;2022-10-16T00:29:02;100341.00;;;25.10
12061;BMP180;6091;51.432;6.880;2022-10-16T00:31:30;100337.00;;;25.10
12061;BMP180;6091;51.432;6.880;2022-10-16T00:33:57;100336.00;;;25.10
12061;BMP180;6091;51.432;6.880;2022-10-16T00:36:26;100342.00;;;25.10
12061;BMP180;6091;51.432;6.880;2022-10-16T00:38:55;100309.00;;;25.10
12061;BMP180;6091;51.432;6.880;2022-10-16T00:41:25;100338.00;;;25.10
12061;BMP180;6091;51.432;6.880;2022-10-16T00:43:58;100337.00;;;25.10
12061;BMP180;6091;51.432;6.880;2022-10-16T00:46:46;100338.00;;;25.00
12061;BMP180;6091;51.432;6.880;2022-10-16T00:49:18;100334.00;;;25.10
12061;BMP180;6091;51.432;6.880;2022-10-16T00:51:52;100339.00;;;25.00
12061;BMP180;6091;51.432;6.880;2022-10-16T00:54:23;100342.00;;;25.00
12061;BMP180;6091;51.432;6.880;2022-10-16T00:56:52;100335.00;;;25.00
12061;BMP180;6091;51.432;6.880;2022-10-16T00:59:28;100320.00;;;25.10
12061;BMP180;6091;51.432;6.880;2022-10-16T01:01:56;100319.00;;;25.00
12061;BMP180;6091;51.432;6.880;2022-10-16T01:04:25;100320.00;;;25.00
12061;BMP180;6091;51.432;6.880;2022-10-16T01:13:11;100337.00;;;25.00
12061;BMP180;6091;51.432;6.880;2022-10-16T01:16:13;100336.00;;;24.90
12061;BMP180;6091;51.432;6.880;2022-10-16T01:18:46;100334.00;;;25.00
12061;BMP180;6091;51.432;6.880;2022-10-16T01:23:57;100332.00;;;25.00
12061;BMP180;6091;51.432;6.880;2022-10-16T01:27:25;100336.00;;;25.00
12061;BMP180;6091;51.432;6.880;2022-10-16T01:30:01;100335.00;;;24.90
12061;BMP180;6091;51.432;6.880;2022-10-16T01:33:12;100338.00;;;24.90
12061;BMP180;6091;51.432;6.880;2022-10-16T01:35:47;100334.00;;;24.90
12061;BMP180;6091;51.432;6.880;2022-10-16T01:38:36;100338.00;;;24.90
12061;BMP180;6091;51.432;6.880;2022-10-16T01:41:19;100337.00;;;24.90
12061;BMP180;6091;51.432;6.880;2022-10-16T01:44:04;100335.00;;;24.90
12061;BMP180;6091;51.432;6.880;2022-10-16T01:46:37;100332.00;;;24.90
12061;BMP180;6091;51.432;6.880;2022-10-16T01:49:06;100323.00;;;24.90
12061;BMP180;6091;51.432;6.880;2022-10-16T01:51:35;100321.00;;;24.90
12061;BMP180;6091;51.432;6.880;2022-10-16T01:54:07;100317.00;;;25.00
12061;BMP180;6091;51.432;6.880;2022-10-16T01:56:36;100330.00;;;24.90
12061;BMP180;6091;51.432;6.880;2022-10-16T01:59:12;100325.00;;;25.00
12061;BMP180;6091;51.432;6.880;2022-10-16T02:01:47;100337.00;;;24.90
12061;BMP180;6091;51.432;6.880;2022-10-16T02:04:29;100334.00;;;25.00
12061;BMP180;6091;51.432;6.880;2022-10-16T02:07:01;100343.00;;;24.90
12061;BMP180;6091;51.432;6.880;2022-10-16T02:09:34;100339.00;;;24.90
12061;BMP180;6091;51.432;6.880;2022-10-16T02:12:19;100352.00;;;24.90
12061;BMP180;6091;51.432;6.880;2022-10-16T02:14:48;100338.00;;;24.90
12061;BMP180;6091;51.432;6.880;2022-10-16T02:17:18;100338.00;;;24.90
12061;BMP180;6091;51.432;6.880;2022-10-16T02:19:48;100341.00;;;24.90
12061;BMP180;6091;51.432;6.880;2022-10-16T02:22:34;100350.00;;;24.90
12061;BMP180;6091;51.432;6.880;2022-10-16T02:25:22;100355.00;;;24.90
12061;BMP180;6091;51.432;6.880;2022-10-16T02:33:05;100348.00;;;24.90
12061;BMP180;6091;51.432;6.880;2022-10-16T02:35:34;100357.00;;;24.90
12061;BMP180;6091;51.432;6.880;2022-10-16T02:38:02;100353.00;;;24.90
12061;BMP180;6091;51.432;6.880;2022-10-16T02:40:30;100350.00;;;24.90
12061;BMP180;6091;51.432;6.880;2022-10-16T02:42:57;100342.00;;;24.90
12061;BMP180;6091;51.432;6.880;2022-10-16T02:45:24;100350.00;;;24.90
12061;BMP180;6091;51.432;6.880;2022-10-16T02:47:51;100341.00;;;24.90
12061;BMP180;6091;51.432;6.880;2022-10-16T02:50:18;100347.00;;;24.90
12061;BMP180;6091;51.432;6.880;2022-10-16T02:52:45;100345.00;;;24.90
12061;BMP180;6091;51.432;6.880;2022-10-16T02:55:12;100347.00;;;24.90
12061;BMP180;6091;51.432;6.880;2022-10-16T02:57:39;100346.00;;;24.90
12061;BMP180;6091;51.432;6.880;2022-10-16T03:00:10;100342.00;;;24.90
12061;BMP180;6091;51.432;6.880;2022-10-16T03:02:38;100339.00;;;24.90
12061;BMP180;6091;51.432;6.880;2022-10-16T03:05:06;100332.00;;;24.90
12061;BMP180;6091;51.432;6.880;2022-10-16T03:07:33;100342.00;;;24.90
12061;BMP180;6091;51.432;6.880;2022-10-16T03:10:00;100351.00;;;24.90
12061;BMP180;6091;51.432;6.880;2022-10-16T03:12:28;100345.00;;;24.90
12061;BMP180;6091;51.432;6.880;2022-10-16T03:14:56;100353.00;;;24.90
12061;BMP180;6091;51.432;6.880;2022-10-16T03:17:24;100341.00;;;24.90
12061;BMP180;6091;51.432;6.880;2022-10-16T03:19:52;100351.00;;;24.90
12061;BMP180;6091;51.432;6.880;2022-10-16T03:22:19;100346.00;;;24.90
12061;BMP180;6091;51.432;6.880;2022-10-16T03:24:45;100350.00;;;24.90
12061;BMP180;6091;51.432;6.880;2022-10-16T03:27:12;100352.00;;;24.90
12061;BMP180;6091;51.432;6.880;2022-10-16T03:29:39;100351.00;;;24.90
12061;BMP180;6091;51.432;6.880;2022-10-16T03:32:06;100347.00;;;24.90
12061;BMP180;6091;51.432;6.880;2022-10-16T03:34:33;100355.00;;;24.90
12061;BMP180;6091;51.432;6.880;2022-10-16T03:37:00;100352.00;;;24.90
12061;BMP180;6091;51.432;6.880;2022-10-16T03:39:27;100345.00;;;24.90
12061;BMP180;6091;51.432;6.880;2022-10-16T03:41:54;100359.00;;;24.90
12061;BMP180;6091;51.432;6.880;2022-10-16T03:44:21;100348.00;;;24.90
12061;BMP180;6091;51.432;6.880;2022-10-16T03:46:48;100364.00;;;24.90
12061;BMP180;6091;51.432;6.880;2022-10-16T03:49:15;100362.00;;;24.90
12061;BMP180;6091;51.432;6.880;2022-10-16T03:51:42;100355.00;;;24.90
12061;BMP180;6091;51.432;6.880;2022-10-16T03:54:10;100354.00;;;24.90
12061;BMP180;6091;51.432;6.880;2022-10-16T03:56:37;100362.00;;;24.90
12061;BMP180;6091;51.432;6.880;2022-10-16T03:59:04;100365.00;;;24.80
12061;BMP180;6091;51.432;6.880;2022-10-16T04:01:31;100369.00;;;24.90
12061;BMP180;6091;51.432;6.880;2022-10-16T04:03:57;100362.00;;;24.90
12061;BMP180;6091;51.432;6.880;2022-10-16T04:06:24;100360.00;;;24.90
12061;BMP180;6091;51.432;6.880;2022-10-16T04:08:51;100363.00;;;24.90
12061;BMP180;6091;51.432;6.880;2022-10-16T04:11:18;100367.00;;;24.90
12061;BMP180;6091;51.432;6.880;2022-10-16T04:13:45;100373.00;;;24.90
12061;BMP180;6091;51.432;6.880;2022-10-16T04:16:12;100382.00;;;24.90
12061;BMP180;6091;51.432;6.880;2022-10-16T04:18:39;100377.00;;;24.90
12061;BMP180;6091;51.432;6.880;2022-10-16T04:21:07;100378.00;;;24.90
12061;BMP180;6091;51.432;6.880;2022-10-16T04:23:34;100387.00;;;24.90
12061;BMP180;6091;51.432;6.880;2022-10-16T04:26:01;100378.00;;;24.90
12061;BMP180;6091;51.432;6.880;2022-10-16T04:28:28;100389.00;;;24.90
12061;BMP180;6091;51.432;6.880;2022-10-16T04:30:55;100389.00;;;24.90
12061;BMP180;6091;51.432;6.880;2022-10-16T04:33:22;100396.00;;;24.90
12061;BMP180;6091;51.432;6.880;2022-10-16T04:35:57;100407.00;;;24.90
12061;BMP180;6091;51.432;6.880;2022-10-16T04:38:24;100414.00;;;24.90
12061;BMP180;6091;51.432;6.880;2022-10-16T04:40:52;100401.00;;;24.90
12061;BMP180;6091;51.432;6.880;2022-10-16T04:43:19;100403.00;;;24.90
12061;BMP180;6091;51.432;6.880;2022-10-16T04:45:47;100415.00;;;24.90
12061;BMP180;6091;51.432;6.880;2022-10-16T04:48:13;100411.00;;;24.90
12061;BMP180;6091;51.432;6.880;2022-10-16T04:50:41;100399.00;;;24.90
12061;BMP180;6091;51.432;6.880;2022-10-16T04:53:08;100416.00;;;24.90
12061;BMP180;6091;51.432;6.880;2022-10-16T04:55:35;100413.00;;;24.90
12061;BMP180;6091;51.432;6.880;2022-10-16T04:58:02;100422.00;;;24.90
12061;BMP180;6091;51.432;6.880;2022-10-16T05:00:28;100416.00;;;24.90
12061;BMP180;6091;51.432;6.880;2022-10-16T05:02:55;100423.00;;;24.90
12061;BMP180;6091;51.432;6.880;2022-10-16T05:05:23;100438.00;;;24.90
12061;BMP180;6091;51.432;6.880;2022-10-16T05:07:51;100440.00;;;24.90
12061;BMP180;6091;51.432;6.880;2022-10-16T05:10:19;100439.00;;;24.90
12061;BMP180;6091;51.432;6.880;2022-10-16T05:12:46;100441.00;;;24.90
12061;BMP180;6091;51.432;6.880;2022-10-16T05:15:13;100448.00;;;24.90
12061;BMP180;6091;51.432;6.880;2022-10-16T05:17:40;100454.00;;;24.90
12061;BMP180;6091;51.432;6.880;2022-10-16T05:20:11;100448.00;;;24.90
12061;BMP180;6091;51.432;6.880;2022-10-16T05:22:38;100448.00;;;24.90
12061;BMP180;6091;51.432;6.880;2022-10-16T05:25:06;100459.00;;;24.90
12061;BMP180;6091;51.432;6.880;2022-10-16T05:27:33;100449.00;;;24.90
12061;BMP180;6091;51.432;6.880;2022-10-16T05:30:00;100457.00;;;24.90
12061;BMP180;6091;51.432;6.880;2022-10-16T05:32:27;100458.00;;;24.90
12061;BMP180;6091;51.432;6.880;2022-10-16T05:34:54;100445.00;;;24.90
12061;BMP180;6091;51.432;6.880;2022-10-16T05:37:21;100455.00;;;24.90
12061;BMP180;6091;51.432;6.880;2022-10-16T05:39:48;100460.00;;;24.90
12061;BMP180;6091;51.432;6.880;2022-10-16T05:42:15;100466.00;;;24.90
12061;BMP180;6091;51.432;6.880;2022-10-16T05:44:41;100455.00;;;24.80
12061;BMP180;6091;51.432;6.880;2022-10-16T05:47:08;100461.00;;;24.90
12061;BMP180;6091;51.432;6.880;2022-10-16T05:49:37;100467.00;;;24.90
12061;BMP180;6091;51.432;6.880;2022-10-16T05:52:07;100463.00;;;24.80
12061;BMP180;6091;51.432;6.880;2022-10-16T05:54:34;100469.00;;;24.80
12061;BMP180;6091;51.432;6.880;2022-10-16T05:57:01;100482.00;;;24.90
12061;BMP180;6091;51.432;6.880;2022-10-16T05:59:29;100491.00;;;24.80
12061;BMP180;6091;51.432;6.880;2022-10-16T06:01:55;100492.00;;;24.80
12061;BMP180;6091;51.432;6.880;2022-10-16T06:04:23;100496.00;;;24.90
12061;BMP180;6091;51.432;6.880;2022-10-16T06:06:50;100504.00;;;24.80
12061;BMP180;6091;51.432;6.880;2022-10-16T06:09:17;100506.00;;;24.80
12061;BMP180;6091;51.432;6.880;2022-10-16T06:11:44;100509.00;;;24.80
12061;BMP180;6091;51.432;6.880;2022-10-16T06:14:10;100513.00;;;24.80
12061;BMP180;6091;51.432;6.880;2022-10-16T06:16:42;100513.00;;;24.80
12061;BMP180;6091;51.432;6.880;2022-10-16T06:19:09;100515.00;;;24.80
12061;BMP180;6091;51.432;6.880;2022-10-16T06:21:36;100514.00;;;24.80
12061;BMP180;6091;51.432;6.880;2022-10-16T06:24:03;100519.00;;;24.80
12061;BMP180;6091;51.432;6.880;2022-10-16T06:26:31;100517.00;;;24.80
12061;BMP180;6091;51.432;6.880;2022-10-16T06:28:59;100519.00;;;24.80
12061;BMP180;6091;51.432;6.880;2022-10-16T06:31:27;100518.00;;;24.80
12061;BMP180;6091;51.432;6.880;2022-10-16T06:33:57;100524.00;;;24.80
12061;BMP180;6091;51.432;6.880;2022-10-16T06:36:25;100528.00;;;24.80
12061;BMP180;6091;51.432;6.880;2022-10-16T06:38:53;100530.00;;;24.80
12061;BMP180;6091;51.432;6.880;2022-10-16T06:41:22;100538.00;;;24.90
12061;BMP180;6091;51.432;6.880;2022-10-16T06:43:50;100541.00;;;24.90
12061;BMP180;6091;51.432;6.880;2022-10-16T06:46:21;100541.00;;;24.90
12061;BMP180;6091;51.432;6.880;2022-10-16T06:48:49;100546.00;;;24.90
12061;BMP180;6091;51.432;6.880;2022-10-16T06:51:21;100550.00;;;24.90
12061;BMP180;6091;51.432;6.880;2022-10-16T06:53:55;100557.00;;;24.90
12061;BMP180;6091;51.432;6.880;2022-10-16T06:56:32;100569.00;;;24.90
12061;BMP180;6091;51.432;6.880;2022-10-16T06:59:00;100578.00;;;24.90
12061;BMP180;6091;51.432;6.880;2022-10-16T07:01:28;100572.00;;;24.90
12061;BMP180;6091;51.432;6.880;2022-10-16T07:03:55;100589.00;;;24.80
12061;BMP180;6091;51.432;6.880;2022-10-16T07:06:24;100592.00;;;24.90
12061;BMP180;6091;51.432;6.880;2022-10-16T07:08:52;100591.00;;;24.90
12061;BMP180;6091;51.432;6.880;2022-10-16T07:11:23;100602.00;;;24.90
12061;BMP180;6091;51.432;6.880;2022-10-16T07:13:51;100594.00;;;24.90
12061;BMP180;6091;51.432;6.880;2022-10-16T07:16:28;100615.00;;;24.90
12061;BMP180;6091;51.432;6.880;2022-10-16T07:19:03;100627.00;;;24.90
12061;BMP180;6091;51.432;6.880;2022-10-16T07:21:33;100619.00;;;24.90
12061;BMP180;6091;51.432;6.880;2022-10-16T07:24:06;100618.00;;;24.90
12061;BMP180;6091;51.432;6.880;2022-10-16T07:26:37;100632.00;;;24.90
12061;BMP180;6091;51.432;6.880;2022-10-16T07:29:21;100630.00;;;24.90
12061;BMP180;6091;51.432;6.880;2022-10-16T07:31:49;100615.00;;;24.90
12061;BMP180;6091;51.432;6.880;2022-10-16T07:34:18;100630.00;;;24.90
12061;BMP180;6091;51.432;6.880;2022-10-16T07:36:49;100635.00;;;24.90
12061;BMP180;6091;51.432;6.880;2022-10-16T07:39:17;100634.00;;;24.90
12061;BMP180;6091;51.432;6.880;2022-10-16T07:41:44;100634.00;;;24.90
12061;BMP180;6091;51.432;6.880;2022-10-16T07:44:11;100641.00;;;24.90
12061;BMP180;6091;51.432;6.880;2022-10-16T07:46:38;100641.00;;;24.90
12061;BMP180;6091;51.432;6.880;2022-10-16T07:49:05;100647.00;;;24.90
12061;BMP180;6091;51.432;6.880;2022-10-16T07:51:32;100649.00;;;24.90
12061;BMP180;6091;51.432;6.880;2022-10-16T07:53:59;100655.00;;;24.90
12061;BMP180;6091;51.432;6.880;2022-10-16T07:56:26;100663.00;;;24.90
12061;BMP180;6091;51.432;6.880;2022-10-16T07:58:53;100661.00;;;25.00
12061;BMP180;6091;51.432;6.880;2022-10-16T08:01:21;100668.00;;;25.00
12061;BMP180;6091;51.432;6.880;2022-10-16T08:03:50;100669.00;;;25.00
12061;BMP180;6091;51.432;6.880;2022-10-16T08:06:20;100679.00;;;25.00
12061;BMP180;6091;51.432;6.880;2022-10-16T08:08:55;100681.00;;;25.00
12061;BMP180;6091;51.432;6.880;2022-10-16T08:11:22;100674.00;;;25.00
12061;BMP180;6091;51.432;6.880;2022-10-16T08:13:50;100689.00;;;25.00
12061;BMP180;6091;51.432;6.880;2022-10-16T08:16:16;100690.00;;;25.00
12061;BMP180;6091;51.432;6.880;2022-10-16T08:18:44;100692.00;;;25.10
12061;BMP180;6091;51.432;6.880;2022-10-16T08:21:17;100698.00;;;25.10
12061;BMP180;6091;51.432;6.880;2022-10-16T08:23:48;100707.00;;;25.10
12061;BMP180;6091;51.432;6.880;2022-10-16T08:26:24;100714.00;;;25.10
12061;BMP180;6091;51.432;6.880;2022-10-16T08:28:51;100706.00;;;25.10
12061;BMP180;6091;51.432;6.880;2022-10-16T08:31:19;100709.00;;;25.10
12061;BMP180;6091;51.432;6.880;2022-10-16T08:33:47;100697.00;;;25.20
12061;BMP180;6091;51.432;6.880;2022-10-16T08:36:15;100726.00;;;25.20
12061;BMP180;6091;51.432;6.880;2022-10-16T08:38:43;100724.00;;;25.20
12061;BMP180;6091;51.432;6.880;2022-10-16T08:47:20;100743.00;;;25.20
12061;BMP180;6091;51.432;6.880;2022-10-16T08:50:08;100741.00;;;25.20
12061;BMP180;6091;51.432;6.880;2022-10-16T08:52:42;100743.00;;;25.20
12061;BMP180;6091;51.432;6.880;2022-10-16T08:57:57;100757.00;;;25.20
12061;BMP180;6091;51.432;6.880;2022-10-16T09:00:26;100754.00;;;25.30
12061;BMP180;6091;51.432;6.880;2022-10-16T09:03:30;100761.00;;;25.30
12061;BMP180;6091;51.432;6.880;2022-10-16T09:06:47;100756.00;;;25.30
12061;BMP180;6091;51.432;6.880;2022-10-16T09:09:29;100767.00;;;25.30
12061;BMP180;6091;51.432;6.880;2022-10-16T09:12:43;100767.00;;;25.30
12061;BMP180;6091;51.432;6.880;2022-10-16T09:18:26;100783.00;;;25.30
12061;BMP180;6091;51.432;6.880;2022-10-16T09:21:18;100782.00;;;25.30
12061;BMP180;6091;51.432;6.880;2022-10-16T09:23:47;100788.00;;;25.40
12061;BMP180;6091;51.432;6.880;2022-10-16T09:26:16;100788.00;;;25.40
12061;BMP180;6091;51.432;6.880;2022-10-16T09:28:45;100776.00;;;25.40
12061;BMP180;6091;51.432;6.880;2022-10-16T09:31:21;100787.00;;;25.40
12061;BMP180;6091;51.432;6.880;2022-10-16T09:33:59;100778.00;;;25.40
12061;BMP180;6091;51.432;6.880;2022-10-16T09:36:28;100792.00;;;25.50
12061;BMP180;6091;51.432;6.880;2022-10-16T09:39:08;100788.00;;;25.50
12061;BMP180;6091;51.432;6.880;2022-10-16T09:41:39;100779.00;;;25.50
12061;BMP180;6091;51.432;6.880;2022-10-16T09:44:40;100787.00;;;25.50
12061;BMP180;6091;51.432;6.880;2022-10-16T09:47:29;100776.00;;;25.60
12061;BMP180;6091;51.432;6.880;2022-10-16T09:50:00;100784.00;;;25.60
12061;BMP180;6091;51.432;6.880;2022-10-16T09:52:33;100784.00;;;25.70
12061;BMP180;6091;51.432;6.880;2022-10-16T09:55:13;100798.00;;;25.70
12061;BMP180;6091;51.432;6.880;2022-10-16T09:57:54;100791.00;;;25.80
12061;BMP180;6091;51.432;6.880;2022-10-16T10:00:23;100799.00;;;25.80
12061;BMP180;6091;51.432;6.880;2022-10-16T10:02:52;100796.00;;;25.90
12061;BMP180;6091;51.432;6.880;2022-10-16T10:05:28;100794.00;;;25.90
12061;BMP180;6091;51.432;6.880;2022-10-16T10:08:05;100797.00;;;26.00
12061;BMP180;6091;51.432;6.880;2022-10-16T10:10:42;100797.00;;;26.10
12061;BMP180;6091;51.432;6.880;2022-10-16T10:13:21;100807.00;;;26.10
12061;BMP180;6091;51.432;6.880;2022-10-16T10:15:50;100801.00;;;26.20
12061;BMP180;6091;51.432;6.880;2022-10-16T10:18:22;100801.00;;;26.30
12061;BMP180;6091;51.432;6.880;2022-10-16T10:21:02;100803.00;;;26.40
12061;BMP180;6091;51.432;6.880;2022-10-16T10:23:30;100794.00;;;26.50
12061;BMP180;6091;51.432;6.880;2022-10-16T10:26:15;100790.00;;;26.60
12061;BMP180;6091;51.432;6.880;2022-10-16T10:46:34;100822.00;;;28.10
12061;BMP180;6091;51.432;6.880;2022-10-16T10:49:16;100828.00;;;28.30
12061;BMP180;6091;51.432;6.880;2022-10-16T10:55:26;100829.00;;;28.90
12061;BMP180;6091;51.432;6.880;2022-10-16T11:01:40;100832.00;;;29.40
12061;BMP180;6091;51.432;6.880;2022-10-16T11:04:24;100821.00;;;29.60
12061;BMP180;6091;51.432;6.880;2022-10-16T11:07:21;100819.00;;;29.80
12061;BMP180;6091;51.432;6.880;2022-10-16T11:09:57;100836.00;;;30.00
12061;BMP180;6091;51.432;6.880;2022-10-16T11:12:42;100828.00;;;30.20
12061;BMP180;6091;51.432;6.880;2022-10-16T11:15:21;100831.00;;;30.30
12061;BMP180;6091;51.432;6.880;2022-10-16T11:18:08;100835.00;;;30.50
12061;BMP180;6091;51.432;6.880;2022-10-16T11:20:58;100832.00;;;30.80
12061;BMP180;6091;51.432;6.880;2022-10-16T11:24:01;100836.00;;;31.00
12061;BMP180;6091;51.432;6.880;2022-10-16T11:26:35;100849.00;;;31.10
12061;BMP180;6091;51.432;6.880;2022-10-16T11:29:17;100843.00;;;31.30
12061;BMP180;6091;51.432;6.880;2022-10-16T11:32:10;100846.00;;;31.50
12061;BMP180;6091;51.432;6.880;2022-10-16T11:35:11;100864.00;;;31.70
12061;BMP180;6091;51.432;6.880;2022-10-16T11:37:46;100857.00;;;31.80
12061;BMP180;6091;51.432;6.880;2022-10-16T11:40:28;100860.00;;;31.80
12061;BMP180;6091;51.432;6.880;2022-10-16T11:45:54;100832.00;;;31.90
12061;BMP180;6091;51.432;6.880;2022-10-16T11:48:52;100845.00;;;31.90
12061;BMP180;6091;51.432;6.880;2022-10-16T11:51:50;100862.00;;;31.70
12061;BMP180;6091;51.432;6.880;2022-10-16T11:57:34;100857.00;;;31.60
12061;BMP180;6091;51.432;6.880;2022-10-16T12:00:09;100870.00;;;31.80
12061;BMP180;6091;51.432;6.880;2022-10-16T12:03:10;100868.00;;;32.00
12061;BMP180;6091;51.432;6.880;2022-10-16T12:05:58;100870.00;;;32.10
12061;BMP180;6091;51.432;6.880;2022-10-16T12:08:28;100878.00;;;32.20
12061;BMP180;6091;51.432;6.880;2022-10-16T12:11:09;100882.00;;;32.30
12061;BMP180;6091;51.432;6.880;2022-10-16T12:13:40;100881.00;;;32.40
12061;BMP180;6091;51.432;6.880;2022-10-16T12:16:22;100872.00;;;32.40
12061;BMP180;6091;51.432;6.880;2022-10-16T12:19:03;100874.00;;;32.30
12061;BMP180;6091;51.432;6.880;2022-10-16T12:21:31;100874.00;;;32.20
12061;BMP180;6091;51.432;6.880;2022-10-16T12:24:03;100878.00;;;32.00
12061;BMP180;6091;51.432;6.880;2022-10-16T12:26:38;100886.00;;;31.80
12061;BMP180;6091;51.432;6.880;2022-10-16T12:29:21;100879.00;;;31.70
12061;BMP180;6091;51.432;6.880;2022-10-16T12:31:50;100874.00;;;31.50
12061;BMP180;6091;51.432;6.880;2022-10-16T12:34:38;100857.00;;;31.30
12061;BMP180;6091;51.432;6.880;2022-10-16T12:37:34;100880.00;;;31.10
12061;BMP180;6091;51.432;6.880;2022-10-16T12:40:25;100869.00;;;30.90
12061;BMP180;6091;51.432;6.880;2022-10-16T12:42:53;100873.00;;;30.80
12061;BMP180;6091;51.432;6.880;2022-10-16T12:45:32;100884.00;;;30.60
12061;BMP180;6091;51.432;6.880;2022-10-16T12:48:19;100883.00;;;30.50
12061;BMP180;6091;51.432;6.880;2022-10-16T12:50:47;100881.00;;;30.50
12061;BMP180;6091;51.432;6.880;2022-10-16T12:53:22;100873.00;;;30.50
12061;BMP180;6091;51.432;6.880;2022-10-16T12:56:02;100889.00;;;30.40
12061;BMP180;6091;51.432;6.880;2022-10-16T13:05:14;100890.00;;;30.00
12061;BMP180;6091;51.432;6.880;2022-10-16T13:10:58;100885.00;;;29.70
12061;BMP180;6091;51.432;6.880;2022-10-16T13:13:58;100877.00;;;29.50
12061;BMP180;6091;51.432;6.880;2022-10-16T13:19:38;100871.00;;;29.30
12061;BMP180;6091;51.432;6.880;2022-10-16T13:22:32;100874.00;;;29.20
12061;BMP180;6091;51.432;6.880;2022-10-16T13:28:31;100881.00;;;29.00
12061;BMP180;6091;51.432;6.880;2022-10-16T13:31:01;100889.00;;;28.90
12061;BMP180;6091;51.432;6.880;2022-10-16T13:33:43;100894.00;;;28.80
12061;BMP180;6091;51.432;6.880;2022-10-16T13:36:25;100890.00;;;28.80
12061;BMP180;6091;51.432;6.880;2022-10-16T13:39:25;100903.00;;;28.70
12061;BMP180;6091;51.432;6.880;2022-10-16T13:42:14;100896.00;;;28.60
12061;BMP180;6091;51.432;6.880;2022-10-16T13:44:51;100891.00;;;28.60
12061;BMP180;6091;51.432;6.880;2022-10-16T13:47:27;100896.00;;;28.50
12061;BMP180;6091;51.432;6.880;2022-10-16T13:50:05;100889.00;;;28.50
12061;BMP180;6091;51.432;6.880;2022-10-16T13:52:32;100891.00;;;28.40
12061;BMP180;6091;51.432;6.880;2022-10-16T13:54:59;100890.00;;;28.40
12061;BMP180;6091;51.432;6.880;2022-10-16T13:57:28;100890.00;;;28.40
12061;BMP180;6091;51.432;6.880;2022-10-16T13:59:55;100882.00;;;28.30
12061;BMP180;6091;51.432;6.880;2022-10-16T14:02:35;100883.00;;;28.30
12061;BMP180;6091;51.432;6.880;2022-10-16T14:05:09;100883.00;;;28.30
12061;BMP180;6091;51.432;6.880;2022-10-16T14:07:38;100883.00;;;28.20
12061;BMP180;6091;51.432;6.880;2022-10-16T14:10:26;100899.00;;;28.20
12061;BMP180;6091;51.432;6.880;2022-10-16T14:13:03;100903.00;;;28.10
12061;BMP180;6091;51.432;6.880;2022-10-16T14:15:34;100909.00;;;28.10
12061;BMP180;6091;51.432;6.880;2022-10-16T14:18:03;100908.00;;;28.10
12061;BMP180;6091;51.432;6.880;2022-10-16T14:20:33;100921.00;;;28.10
12061;BMP180;6091;51.432;6.880;2022-10-16T14:23:30;100907.00;;;28.00
12061;BMP180;6091;51.432;6.880;2022-10-16T14:28:37;100914.00;;;27.90
12061;BMP180;6091;51.432;6.880;2022-10-16T14:33:46;100867.00;;;27.90
12061;BMP180;6091;51.432;6.880;2022-10-16T14:36:15;100879.00;;;27.80
12061;BMP180;6091;51.432;6.880;2022-10-16T14:39:16;100890.00;;;27.80
12061;BMP180;6091;51.432;6.880;2022-10-16T14:41:49;100886.00;;;27.80
12061;BMP180;6091;51.432;6.880;2022-10-16T14:44:18;100900.00;;;27.70
12061;BMP180;6091;51.432;6.880;2022-10-16T14:46:47;100898.00;;;27.70
12061;BMP180;6091;51.432;6.880;2022-10-16T14:49:20;100895.00;;;27.70
12061;BMP180;6091;51.432;6.880;2022-10-16T14:51:48;100881.00;;;27.70
12061;BMP180;6091;51.432;6.880;2022-10-16T14:54:18;100888.00;;;27.70
12061;BMP180;6091;51.432;6.880;2022-10-16T14:56:51;100895.00;;;27.70
12061;BMP180;6091;51.432;6.880;2022-10-16T15:01:57;100902.00;;;27.60
12061;BMP180;6091;51.432;6.880;2022-10-16T15:04:24;100894.00;;;27.60
12061;BMP180;6091;51.432;6.880;2022-10-16T15:06:51;100900.00;;;27.50
12061;BMP180;6091;51.432;6.880;2022-10-16T15:09:18;100902.00;;;27.50
12061;BMP180;6091;51.432;6.880;2022-10-16T15:11:46;100898.00;;;27.50
12061;BMP180;6091;51.432;6.880;2022-10-16T15:14:14;100883.00;;;27.50
12061;BMP180;6091;51.432;6.880;2022-10-16T15:16:41;100893.00;;;27.50
12061;BMP180;6091;51.432;6.880;2022-10-16T15:19:08;100887.00;;;27.50
12061;BMP180;6091;51.432;6.880;2022-10-16T15:21:35;100882.00;;;27.40
12061;BMP180;6091;51.432;6.880;2022-10-16T15:24:02;100878.00;;;27.40
12061;BMP180;6091;51.432;6.880;2022-10-16T15:26:29;100875.00;;;27.40
12061;BMP180;6091;51.432;6.880;2022-10-16T15:28:57;100879.00;;;27.40
12061;BMP180;6091;51.432;6.880;2022-10-16T15:31:24;100879.00;;;27.40
12061;BMP180;6091;51.432;6.880;2022-10-16T15:33:53;100872.00;;;27.30
12061;BMP180;6091;51.432;6.880;2022-10-16T15:36:27;100864.00;;;27.30
12061;BMP180;6091;51.432;6.880;2022-10-16T15:38:55;100866.00;;;27.30
12061;BMP180;6091;51.432;6.880;2022-10-16T15:41:22;100864.00;;;27.30
12061;BMP180;6091;51.432;6.880;2022-10-16T15:43:50;100869.00;;;27.30
12061;BMP180;6091;51.432;6.880;2022-10-16T15:46:24;100853.00;;;27.30
12061;BMP180;6091;51.432;6.880;2022-10-16T15:48:57;100864.00;;;27.20
12061;BMP180;6091;51.432;6.880;2022-10-16T15:51:26;100858.00;;;27.20
12061;BMP180;6091;51.432;6.880;2022-10-16T15:53:59;100851.00;;;27.20
12061;BMP180;6091;51.432;6.880;2022-10-16T15:56:29;100849.00;;;27.20
12061;BMP180;6091;51.432;6.880;2022-10-16T15:58:57;100865.00;;;27.20
12061;BMP180;6091;51.432;6.880;2022-10-16T16:01:25;100866.00;;;27.20
12061;BMP180;6091;51.432;6.880;2022-10-16T16:03:55;100855.00;;;27.10